WAT3465 ENBR-EKCH
Flight info
| Callsign | WAT3465 |
|---|---|
| Flight time | 0h 52m |
| Altitude | 35000 |
| Route | TINIG DCT AMSEV DCT TESPI |
| Aircraft | A320/M-SDE3FGHIRWY/LB1 |
Departure
| Time | 2026-04-25 18:38 |
|---|---|
| Airport | Bergen Airport, Flesland (ENBR) |
Arrival
| Time | 2026-04-25 19:31 |
|---|---|
| Airport | Copenhagen Kastrup Airport (EKCH) |
| Time | Latitude | Longitude | Altitude | Speed | Heading |
|---|---|---|---|---|---|
| 2026-04-25 18:11 | 60.28983 | 5.22645 | 174 ft | 0 kts | 155° |
| 2026-04-25 18:26 | 60.28986 | 5.22642 | 174 ft | 2 kts | 155° |
| 2026-04-25 18:26 | 60.29003 | 5.22627 | 174 ft | 3 kts | 160° |
| 2026-04-25 18:27 | 60.29022 | 5.22616 | 174 ft | 3 kts | 177° |
| 2026-04-25 18:27 | 60.29039 | 5.22619 | 174 ft | 3 kts | 228° |
| 2026-04-25 18:27 | 60.29044 | 5.22633 | 174 ft | 0 kts | 263° |
| 2026-04-25 18:31 | 60.29044 | 5.22628 | 174 ft | 2 kts | 263° |
| 2026-04-25 18:31 | 60.29043 | 5.22611 | 154 ft | 1 kts | 263° |
| 2026-04-25 18:31 | 60.29038 | 5.22541 | 174 ft | 7 kts | 262° |
| 2026-04-25 18:32 | 60.29031 | 5.22445 | 174 ft | 7 kts | 261° |
| 2026-04-25 18:32 | 60.29000 | 5.22377 | 174 ft | 6 kts | 196° |
| 2026-04-25 18:32 | 60.28957 | 5.22388 | 174 ft | 6 kts | 174° |
| 2026-04-25 18:32 | 60.28933 | 5.22340 | 174 ft | 5 kts | 252° |
| 2026-04-25 18:33 | 60.28912 | 5.22291 | 174 ft | 7 kts | 207° |
| 2026-04-25 18:33 | 60.28863 | 5.22300 | 174 ft | 7 kts | 169° |
| 2026-04-25 18:33 | 60.28818 | 5.22317 | 174 ft | 6 kts | 171° |
| 2026-04-25 18:33 | 60.28777 | 5.22330 | 174 ft | 6 kts | 171° |
| 2026-04-25 18:34 | 60.28704 | 5.22354 | 174 ft | 13 kts | 171° |
| 2026-04-25 18:34 | 60.28620 | 5.22380 | 174 ft | 12 kts | 171° |
| 2026-04-25 18:34 | 60.28543 | 5.22406 | 174 ft | 11 kts | 170° |
| 2026-04-25 18:34 | 60.28468 | 5.22430 | 175 ft | 13 kts | 171° |
| 2026-04-25 18:35 | 60.28398 | 5.22453 | 180 ft | 9 kts | 170° |
| 2026-04-25 18:35 | 60.28330 | 5.22476 | 181 ft | 8 kts | 171° |
| 2026-04-25 18:35 | 60.28275 | 5.22494 | 182 ft | 10 kts | 171° |
| 2026-04-25 18:35 | 60.28196 | 5.22521 | 181 ft | 12 kts | 170° |
| 2026-04-25 18:36 | 60.28119 | 5.22541 | 182 ft | 10 kts | 173° |
| 2026-04-25 18:36 | 60.28075 | 5.22531 | 201 ft | 3 kts | 205° |
| 2026-04-25 18:36 | 60.28065 | 5.22512 | 201 ft | 3 kts | 229° |
| 2026-04-25 18:36 | 60.28056 | 5.22469 | 192 ft | 3 kts | 255° |
| 2026-04-25 18:37 | 60.28052 | 5.22423 | 184 ft | 6 kts | 261° |
| 2026-04-25 18:37 | 60.28043 | 5.22309 | 197 ft | 7 kts | 262° |
| 2026-04-25 18:37 | 60.28062 | 5.22249 | 189 ft | 5 kts | 330° |
| 2026-04-25 18:37 | 60.28106 | 5.22228 | 195 ft | 8 kts | 349° |
| 2026-04-25 18:38 | 60.28280 | 5.22168 | 195 ft | 58 kts | 349° |
| 2026-04-25 18:38 | 60.28915 | 5.21958 | 176 ft | 124 kts | 350° |
| 2026-04-25 18:38 | 60.29828 | 5.21667 | 687 ft | 133 kts | 348° |
| 2026-04-25 18:38 | 60.30742 | 5.21362 | 1482 ft | 136 kts | 350° |
| 2026-04-25 18:39 | 60.31746 | 5.21030 | 1943 ft | 157 kts | 350° |
| 2026-04-25 18:39 | 60.32883 | 5.20633 | 2430 ft | 175 kts | 351° |
| 2026-04-25 18:39 | 60.34173 | 5.20184 | 2821 ft | 201 kts | 351° |
| 2026-04-25 18:39 | 60.35634 | 5.19695 | 3372 ft | 224 kts | 352° |
| 2026-04-25 18:40 | 60.37208 | 5.19187 | 4275 ft | 230 kts | 353° |
| 2026-04-25 18:40 | 60.38803 | 5.19374 | 5208 ft | 240 kts | 16° |
| 2026-04-25 18:40 | 60.40240 | 5.21168 | 6183 ft | 250 kts | 43° |
| 2026-04-25 18:40 | 60.41118 | 5.24266 | 7152 ft | 264 kts | 69° |
| 2026-04-25 18:41 | 60.41156 | 5.28103 | 7996 ft | 287 kts | 98° |
| 2026-04-25 18:41 | 60.40275 | 5.31846 | 8859 ft | 304 kts | 119° |
| 2026-04-25 18:41 | 60.38981 | 5.35266 | 9822 ft | 309 kts | 124° |
| 2026-04-25 18:41 | 60.37565 | 5.38634 | 10529 ft | 322 kts | 126° |
| 2026-04-25 18:42 | 60.36061 | 5.42204 | 10858 ft | 346 kts | 125° |
| 2026-04-25 18:42 | 60.35022 | 5.44743 | 11043 ft | 361 kts | 124° |
| 2026-04-25 18:42 | 60.32862 | 5.50254 | 11639 ft | 383 kts | 123° |
| 2026-04-25 18:42 | 60.31237 | 5.54565 | 12302 ft | 390 kts | 122° |
| 2026-04-25 18:43 | 60.29600 | 5.58985 | 13000 ft | 396 kts | 121° |
| 2026-04-25 18:43 | 60.27943 | 5.63497 | 13674 ft | 404 kts | 121° |
| 2026-04-25 18:43 | 60.26259 | 5.68093 | 14308 ft | 411 kts | 121° |
| 2026-04-25 18:43 | 60.24551 | 5.72742 | 14932 ft | 416 kts | 121° |
| 2026-04-25 18:44 | 60.22807 | 5.77454 | 15528 ft | 423 kts | 121° |
| 2026-04-25 18:44 | 60.21028 | 5.82222 | 16151 ft | 429 kts | 121° |
| 2026-04-25 18:44 | 60.19217 | 5.87051 | 16773 ft | 435 kts | 121° |
| 2026-04-25 18:44 | 60.17384 | 5.91932 | 17391 ft | 441 kts | 121° |
| 2026-04-25 18:45 | 60.15526 | 5.96888 | 17969 ft | 447 kts | 121° |
| 2026-04-25 18:45 | 60.13640 | 6.01906 | 18549 ft | 453 kts | 121° |
| 2026-04-25 18:45 | 60.11732 | 6.06967 | 19090 ft | 457 kts | 121° |
| 2026-04-25 18:45 | 60.09799 | 6.12080 | 19629 ft | 462 kts | 121° |
| 2026-04-25 18:46 | 60.07844 | 6.17238 | 20227 ft | 467 kts | 121° |
| 2026-04-25 18:46 | 60.05868 | 6.22434 | 20789 ft | 471 kts | 121° |
| 2026-04-25 18:46 | 60.03878 | 6.27659 | 21340 ft | 475 kts | 121° |
| 2026-04-25 18:46 | 60.01663 | 6.32661 | 21888 ft | 486 kts | 131° |
| 2026-04-25 18:47 | 59.99053 | 6.37050 | 22400 ft | 495 kts | 141° |
| 2026-04-25 18:47 | 59.96105 | 6.40698 | 22881 ft | 501 kts | 148° |
| 2026-04-25 18:47 | 59.93060 | 6.44112 | 23348 ft | 505 kts | 148° |
| 2026-04-25 18:47 | 59.89986 | 6.47556 | 23786 ft | 508 kts | 148° |
| 2026-04-25 18:48 | 59.86936 | 6.50980 | 24174 ft | 511 kts | 148° |
| 2026-04-25 18:48 | 59.83788 | 6.54519 | 24587 ft | 514 kts | 148° |
| 2026-04-25 18:48 | 59.80714 | 6.57974 | 24957 ft | 517 kts | 148° |
| 2026-04-25 18:48 | 59.77574 | 6.61493 | 25348 ft | 519 kts | 148° |
| 2026-04-25 18:49 | 59.74416 | 6.65018 | 25729 ft | 522 kts | 148° |
| 2026-04-25 18:49 | 59.71246 | 6.68542 | 26089 ft | 525 kts | 148° |
| 2026-04-25 18:49 | 59.68051 | 6.72084 | 26461 ft | 527 kts | 148° |
| 2026-04-25 18:49 | 59.64839 | 6.75638 | 26830 ft | 530 kts | 148° |
| 2026-04-25 18:50 | 59.62708 | 6.77991 | 27040 ft | 532 kts | 148° |
| 2026-04-25 18:50 | 59.58367 | 6.82779 | 27491 ft | 535 kts | 148° |
| 2026-04-25 18:50 | 59.55116 | 6.86364 | 27810 ft | 538 kts | 148° |
| 2026-04-25 18:50 | 59.51840 | 6.89966 | 28161 ft | 540 kts | 148° |
| 2026-04-25 18:51 | 59.48545 | 6.93575 | 28474 ft | 543 kts | 148° |
| 2026-04-25 18:51 | 59.47475 | 6.94744 | 28560 ft | 544 kts | 148° |
| 2026-04-25 18:51 | 59.41914 | 7.00812 | 29060 ft | 548 kts | 148° |
| 2026-04-25 18:51 | 59.38571 | 7.04448 | 29331 ft | 550 kts | 148° |
| 2026-04-25 18:52 | 59.35215 | 7.08091 | 29613 ft | 552 kts | 148° |
| 2026-04-25 18:52 | 59.31852 | 7.11733 | 29855 ft | 554 kts | 148° |
| 2026-04-25 18:52 | 59.28473 | 7.15381 | 30207 ft | 554 kts | 148° |
| 2026-04-25 18:52 | 59.25098 | 7.19016 | 30533 ft | 553 kts | 148° |
| 2026-04-25 18:53 | 59.21772 | 7.22593 | 30859 ft | 552 kts | 148° |
| 2026-04-25 18:53 | 59.18369 | 7.26245 | 31172 ft | 551 kts | 149° |
| 2026-04-25 18:53 | 59.15052 | 7.29797 | 31470 ft | 551 kts | 149° |
| 2026-04-25 18:53 | 59.11691 | 7.33382 | 31770 ft | 550 kts | 149° |
| 2026-04-25 18:54 | 59.04981 | 7.40518 | 32360 ft | 549 kts | 149° |
| 2026-04-25 18:54 | 59.01632 | 7.44075 | 32656 ft | 549 kts | 149° |
| 2026-04-25 18:54 | 58.98290 | 7.47619 | 32963 ft | 548 kts | 149° |
| 2026-04-25 18:55 | 58.94943 | 7.51162 | 33272 ft | 548 kts | 149° |
| 2026-04-25 18:55 | 58.91598 | 7.54696 | 33577 ft | 547 kts | 149° |
| 2026-04-25 18:55 | 58.88255 | 7.58217 | 33880 ft | 547 kts | 149° |
| 2026-04-25 18:55 | 58.84920 | 7.61719 | 34170 ft | 546 kts | 149° |
| 2026-04-25 18:56 | 58.81581 | 7.65219 | 34427 ft | 546 kts | 149° |
| 2026-04-25 18:56 | 58.78243 | 7.68711 | 34695 ft | 545 kts | 149° |
| 2026-04-25 18:56 | 58.74908 | 7.72186 | 34962 ft | 545 kts | 150° |
| 2026-04-25 18:56 | 58.71568 | 7.75658 | 35071 ft | 545 kts | 150° |
| 2026-04-25 18:57 | 58.68227 | 7.79120 | 35091 ft | 545 kts | 150° |
| 2026-04-25 18:57 | 58.61557 | 7.86028 | 35088 ft | 545 kts | 150° |
| 2026-04-25 18:58 | 58.54866 | 7.92912 | 35080 ft | 546 kts | 150° |
| 2026-04-25 18:58 | 58.44825 | 8.03205 | 35058 ft | 546 kts | 150° |
| 2026-04-25 18:59 | 58.31399 | 8.16851 | 35038 ft | 547 kts | 150° |
| 2026-04-25 19:00 | 58.21314 | 8.27031 | 35032 ft | 548 kts | 150° |
| 2026-04-25 19:01 | 58.11249 | 8.37106 | 35057 ft | 548 kts | 150° |
| 2026-04-25 19:01 | 58.04507 | 8.43843 | 35058 ft | 549 kts | 150° |
| 2026-04-25 19:02 | 57.94368 | 8.53906 | 35065 ft | 549 kts | 150° |
| 2026-04-25 19:03 | 57.86468 | 8.61690 | 35067 ft | 549 kts | 150° |
| 2026-04-25 19:03 | 57.81047 | 8.67777 | 35065 ft | 544 kts | 139° |
| 2026-04-25 19:03 | 57.78034 | 8.72108 | 35064 ft | 544 kts | 139° |
| 2026-04-25 19:04 | 57.69043 | 8.85125 | 35067 ft | 545 kts | 139° |
| 2026-04-25 19:05 | 57.57028 | 9.02398 | 35061 ft | 546 kts | 139° |
| 2026-04-25 19:06 | 57.52016 | 9.09547 | 35061 ft | 546 kts | 139° |
| 2026-04-25 19:06 | 57.42961 | 9.22413 | 35055 ft | 547 kts | 139° |
| 2026-04-25 19:07 | 57.33877 | 9.35224 | 35052 ft | 547 kts | 139° |
| 2026-04-25 19:08 | 57.25318 | 9.47225 | 35042 ft | 548 kts | 139° |
| 2026-04-25 19:09 | 57.14160 | 9.62765 | 35035 ft | 549 kts | 140° |
| 2026-04-25 19:10 | 57.03958 | 9.76871 | 35021 ft | 550 kts | 140° |
| 2026-04-25 19:10 | 56.97988 | 9.85496 | 35027 ft | 547 kts | 133° |
| 2026-04-25 19:11 | 56.92423 | 9.95004 | 35026 ft | 548 kts | 132° |
| 2026-04-25 19:11 | 56.86857 | 10.04542 | 35026 ft | 548 kts | 133° |
| 2026-04-25 19:12 | 56.81270 | 10.14062 | 34819 ft | 550 kts | 133° |
| 2026-04-25 19:12 | 56.78468 | 10.18818 | 34581 ft | 552 kts | 133° |
| 2026-04-25 19:12 | 56.75647 | 10.23591 | 34347 ft | 554 kts | 133° |
| 2026-04-25 19:12 | 56.72810 | 10.28374 | 34116 ft | 557 kts | 133° |
| 2026-04-25 19:13 | 56.70032 | 10.33265 | 33851 ft | 556 kts | 128° |
| 2026-04-25 19:13 | 56.67368 | 10.38383 | 33592 ft | 557 kts | 128° |
| 2026-04-25 19:13 | 56.64707 | 10.43526 | 33330 ft | 559 kts | 128° |
| 2026-04-25 19:13 | 56.62036 | 10.48665 | 33062 ft | 559 kts | 128° |
| 2026-04-25 19:14 | 56.59362 | 10.53787 | 32803 ft | 560 kts | 128° |
| 2026-04-25 19:14 | 56.57581 | 10.57187 | 32631 ft | 561 kts | 128° |
| 2026-04-25 19:14 | 56.53976 | 10.64036 | 32288 ft | 562 kts | 128° |
| 2026-04-25 19:14 | 56.51270 | 10.69153 | 32037 ft | 563 kts | 128° |
| 2026-04-25 19:15 | 56.48554 | 10.74268 | 31787 ft | 564 kts | 128° |
| 2026-04-25 19:15 | 56.45835 | 10.79370 | 31540 ft | 565 kts | 128° |
| 2026-04-25 19:15 | 56.43101 | 10.84484 | 31291 ft | 566 kts | 128° |
| 2026-04-25 19:15 | 56.40356 | 10.89599 | 31048 ft | 567 kts | 128° |
| 2026-04-25 19:16 | 56.37602 | 10.94715 | 30804 ft | 568 kts | 128° |
| 2026-04-25 19:16 | 56.34878 | 10.99760 | 30523 ft | 568 kts | 128° |
| 2026-04-25 19:16 | 56.32102 | 11.04874 | 29201 ft | 562 kts | 128° |
| 2026-04-25 19:16 | 56.29351 | 11.09916 | 27295 ft | 566 kts | 128° |
| 2026-04-25 19:17 | 56.26641 | 11.14880 | 26223 ft | 561 kts | 128° |
| 2026-04-25 19:17 | 56.23689 | 11.19637 | 25650 ft | 563 kts | 135° |
| 2026-04-25 19:17 | 56.20734 | 11.24081 | 25351 ft | 562 kts | 135° |
| 2026-04-25 19:17 | 56.17729 | 11.28562 | 25115 ft | 560 kts | 135° |
| 2026-04-25 19:18 | 56.14728 | 11.33015 | 24924 ft | 557 kts | 136° |
| 2026-04-25 19:18 | 56.11797 | 11.37328 | 24992 ft | 533 kts | 136° |
| 2026-04-25 19:18 | 56.08975 | 11.41463 | 24979 ft | 514 kts | 136° |
| 2026-04-25 19:18 | 56.06264 | 11.45440 | 24981 ft | 496 kts | 135° |
| 2026-04-25 19:19 | 56.03641 | 11.49299 | 24972 ft | 481 kts | 135° |
| 2026-04-25 19:19 | 56.01078 | 11.53083 | 24530 ft | 478 kts | 135° |
| 2026-04-25 19:19 | 55.98487 | 11.56930 | 23537 ft | 492 kts | 135° |
| 2026-04-25 19:19 | 55.96727 | 11.59551 | 22751 ft | 501 kts | 136° |
| 2026-04-25 19:20 | 55.93079 | 11.64967 | 21170 ft | 518 kts | 137° |
| 2026-04-25 19:20 | 55.90291 | 11.69069 | 20096 ft | 523 kts | 137° |
| 2026-04-25 19:20 | 55.87450 | 11.73218 | 18858 ft | 533 kts | 139° |
| 2026-04-25 19:20 | 55.84571 | 11.77385 | 17937 ft | 531 kts | 139° |
| 2026-04-25 19:21 | 55.81768 | 11.81402 | 16657 ft | 504 kts | 140° |
| 2026-04-25 19:21 | 55.76529 | 11.88807 | 13942 ft | 453 kts | 140° |
| 2026-04-25 19:21 | 55.74156 | 11.92160 | 12643 ft | 426 kts | 140° |
| 2026-04-25 19:22 | 55.71885 | 11.95413 | 10969 ft | 413 kts | 139° |
| 2026-04-25 19:22 | 55.69731 | 11.98579 | 9801 ft | 389 kts | 138° |
| 2026-04-25 19:22 | 55.65915 | 12.04274 | 8349 ft | 330 kts | 138° |
| 2026-04-25 19:23 | 55.64211 | 12.06757 | 7804 ft | 306 kts | 138° |
| 2026-04-25 19:23 | 55.61064 | 12.11637 | 5871 ft | 296 kts | 134° |
| 2026-04-25 19:23 | 55.59500 | 12.14091 | 5111 ft | 306 kts | 134° |
| 2026-04-25 19:24 | 55.58087 | 12.16812 | 4825 ft | 293 kts | 124° |
| 2026-04-25 19:24 | 55.56852 | 12.19523 | 4344 ft | 283 kts | 124° |
| 2026-04-25 19:24 | 55.54546 | 12.24507 | 3595 ft | 250 kts | 124° |
| 2026-04-25 19:25 | 55.52390 | 12.29052 | 3008 ft | 229 kts | 125° |
| 2026-04-25 19:25 | 55.51379 | 12.31158 | 2724 ft | 221 kts | 125° |
| 2026-04-25 19:25 | 55.50393 | 12.33189 | 2493 ft | 215 kts | 126° |
| 2026-04-25 19:26 | 55.49420 | 12.35174 | 2347 ft | 213 kts | 126° |
| 2026-04-25 19:26 | 55.48462 | 12.37153 | 2213 ft | 211 kts | 126° |
| 2026-04-25 19:26 | 55.47742 | 12.39302 | 2057 ft | 197 kts | 94° |
| 2026-04-25 19:26 | 55.47767 | 12.41508 | 2066 ft | 164 kts | 62° |
| 2026-04-25 19:27 | 55.48233 | 12.43296 | 2070 ft | 164 kts | 47° |
| 2026-04-25 19:27 | 55.48717 | 12.44301 | 2056 ft | 162 kts | 33° |
| 2026-04-25 19:27 | 55.49822 | 12.45974 | 2052 ft | 152 kts | 31° |
| 2026-04-25 19:27 | 55.50613 | 12.47148 | 1991 ft | 145 kts | 31° |
| 2026-04-25 19:28 | 55.51350 | 12.48272 | 1986 ft | 140 kts | 31° |
| 2026-04-25 19:28 | 55.52091 | 12.49397 | 1951 ft | 142 kts | 32° |
| 2026-04-25 19:28 | 55.52824 | 12.50522 | 1824 ft | 133 kts | 31° |
| 2026-04-25 19:28 | 55.53516 | 12.51578 | 1586 ft | 132 kts | 30° |
| 2026-04-25 19:29 | 55.54206 | 12.52632 | 1406 ft | 132 kts | 31° |
| 2026-04-25 19:29 | 55.54885 | 12.53681 | 1233 ft | 127 kts | 31° |
| 2026-04-25 19:29 | 55.55545 | 12.54706 | 1064 ft | 126 kts | 32° |
| 2026-04-25 19:29 | 55.56213 | 12.55731 | 865 ft | 128 kts | 32° |
| 2026-04-25 19:30 | 55.56893 | 12.56770 | 698 ft | 132 kts | 33° |
| 2026-04-25 19:30 | 55.57604 | 12.57866 | 497 ft | 138 kts | 33° |
| 2026-04-25 19:30 | 55.58332 | 12.58989 | 312 ft | 138 kts | 34° |
| 2026-04-25 19:30 | 55.59051 | 12.60094 | 111 ft | 136 kts | 35° |
| 2026-04-25 19:31 | 55.59739 | 12.61157 | 29 ft | 122 kts | 36° |
| 2026-04-25 19:31 | 55.60261 | 12.61958 | 24 ft | 75 kts | 41° |
| 2026-04-25 19:31 | 55.60531 | 12.62376 | 29 ft | 36 kts | 40° |
| 2026-04-25 19:31 | 55.60697 | 12.62632 | 26 ft | 23 kts | 40° |
| 2026-04-25 19:32 | 55.60835 | 12.62794 | 27 ft | 24 kts | 26° |
| 2026-04-25 19:32 | 55.60968 | 12.62866 | 24 ft | 21 kts | 12° |
| 2026-04-25 19:32 | 55.61068 | 12.62903 | 24 ft | 13 kts | 12° |
| 2026-04-25 19:32 | 55.61130 | 12.62936 | 24 ft | 15 kts | 25° |
| 2026-04-25 19:33 | 55.61252 | 12.63113 | 24 ft | 15 kts | 41° |
| 2026-04-25 19:33 | 55.61305 | 12.63192 | 24 ft | 9 kts | 40° |
| 2026-04-25 19:33 | 55.61351 | 12.63263 | 24 ft | 8 kts | 42° |
| 2026-04-25 19:33 | 55.61391 | 12.63328 | 24 ft | 7 kts | 42° |
| 2026-04-25 19:34 | 55.61434 | 12.63393 | 24 ft | 13 kts | 40° |
| 2026-04-25 19:34 | 55.61513 | 12.63514 | 25 ft | 12 kts | 41° |
| 2026-04-25 19:34 | 55.61560 | 12.63588 | 24 ft | 7 kts | 41° |
| 2026-04-25 19:34 | 55.61596 | 12.63643 | 24 ft | 8 kts | 41° |
| 2026-04-25 19:35 | 55.61670 | 12.63758 | 24 ft | 17 kts | 41° |
| 2026-04-25 19:35 | 55.61753 | 12.63888 | 24 ft | 11 kts | 42° |
| 2026-04-25 19:35 | 55.61814 | 12.63980 | 24 ft | 12 kts | 40° |
| 2026-04-25 19:35 | 55.61880 | 12.64075 | 24 ft | 12 kts | 32° |
| 2026-04-25 19:36 | 55.61964 | 12.64146 | 24 ft | 15 kts | 25° |
| 2026-04-25 19:36 | 55.62066 | 12.64232 | 24 ft | 18 kts | 25° |
| 2026-04-25 19:36 | 55.62164 | 12.64316 | 25 ft | 13 kts | 25° |
| 2026-04-25 19:36 | 55.62189 | 12.64336 | 22 ft | 0 kts | 25° |
| 2026-04-25 19:37 | 55.62216 | 12.64359 | 24 ft | 8 kts | 25° |
| 2026-04-25 19:37 | 55.62255 | 12.64424 | 22 ft | 7 kts | 63° |
| 2026-04-25 19:37 | 55.62277 | 12.64510 | 25 ft | 11 kts | 65° |
| 2026-04-25 19:37 | 55.62299 | 12.64595 | 24 ft | 6 kts | 65° |
| 2026-04-25 19:38 | 55.62314 | 12.64658 | 24 ft | 5 kts | 67° |
| 2026-04-25 19:38 | 55.62333 | 12.64731 | 26 ft | 9 kts | 65° |
| 2026-04-25 19:38 | 55.62355 | 12.64842 | 24 ft | 9 kts | 89° |
| 2026-04-25 19:38 | 55.62327 | 12.64940 | 24 ft | 10 kts | 123° |
| 2026-04-25 19:39 | 55.62287 | 12.65049 | 24 ft | 7 kts | 122° |
| 2026-04-25 19:39 | 55.62277 | 12.65079 | 25 ft | 4 kts | 120° |
| 2026-04-25 19:39 | 55.62278 | 12.65136 | 24 ft | 5 kts | 69° |
| 2026-04-25 19:39 | 55.62308 | 12.65196 | 24 ft | 9 kts | 29° |
| 2026-04-25 19:40 | 55.62374 | 12.65203 | 24 ft | 11 kts | 359° |
| 2026-04-25 19:40 | 55.62457 | 12.65192 | 24 ft | 13 kts | 347° |
| 2026-04-25 19:40 | 55.62554 | 12.65183 | 24 ft | 15 kts | 359° |
| 2026-04-25 19:40 | 55.62631 | 12.65192 | 24 ft | 9 kts | 25° |
| 2026-04-25 19:41 | 55.62653 | 12.65252 | 24 ft | 4 kts | 78° |
| 2026-04-25 19:41 | 55.62647 | 12.65314 | 24 ft | 5 kts | 99° |
| 2026-04-25 19:41 | 55.62672 | 12.65365 | 25 ft | 6 kts | 31° |
| 2026-04-25 19:41 | 55.62686 | 12.65378 | 24 ft | 6 kts | 27° |
| 2026-04-25 19:42 | 55.62703 | 12.65393 | 25 ft | 0 kts | 27° |